createdAt,value
2023-07-05T00:01:29.577Z,101141.28
2023-07-05T00:03:56.933Z,101138.31
2023-07-05T00:06:24.340Z,101135.03
2023-07-05T00:08:52.388Z,101139.47
2023-07-05T00:11:20.876Z,101128.13
2023-07-05T00:13:47.878Z,101082.44
2023-07-05T00:16:14.893Z,101132.81
2023-07-05T00:18:42.302Z,101112.75
2023-07-05T00:21:13.650Z,101102.88
2023-07-05T00:23:45.409Z,101102.94
2023-07-05T00:26:12.430Z,101097.84
2023-07-05T00:28:39.501Z,101113.00
2023-07-05T00:31:07.305Z,101105.25
2023-07-05T00:33:34.367Z,101102.72
2023-07-05T00:36:01.395Z,101099.91
2023-07-05T00:38:28.403Z,101094.88
2023-07-05T00:40:55.348Z,101099.47
2023-07-05T00:43:22.333Z,101094.38
2023-07-05T00:45:55.825Z,101064.44
2023-07-05T00:48:45.105Z,101103.75
2023-07-05T00:51:22.085Z,101071.41
2023-07-05T00:53:49.148Z,101097.38
2023-07-05T00:56:24.116Z,101100.16
2023-07-05T00:58:55.340Z,101016.25
2023-07-05T01:01:26.246Z,101090.84
2023-07-05T01:03:55.769Z,101099.41
2023-07-05T01:06:25.398Z,101095.09
2023-07-05T01:08:53.231Z,101089.69
2023-07-05T01:11:20.096Z,101088.09
2023-07-05T01:13:58.288Z,101074.56
2023-07-05T01:16:59.431Z,101070.44
2023-07-05T01:19:47.391Z,101064.69
2023-07-05T01:22:38.486Z,101046.25
2023-07-05T01:25:08.568Z,101039.38
2023-07-05T01:27:58.053Z,101041.34
2023-07-05T01:30:43.731Z,101037.22
2023-07-05T01:33:18.903Z,101036.94
2023-07-05T01:35:52.784Z,101008.47
2023-07-05T01:38:20.191Z,101032.78
2023-07-05T01:40:51.435Z,101025.31
2023-07-05T01:43:18.887Z,101030.59
2023-07-05T01:46:00.549Z,101024.00
2023-07-05T01:48:49.483Z,101014.63
2023-07-05T01:51:40.802Z,101009.63
2023-07-05T01:54:24.827Z,100999.59
2023-07-05T01:57:01.618Z,100990.25
2023-07-05T01:59:34.721Z,100984.72
2023-07-05T02:02:04.530Z,100980.78
2023-07-05T02:04:36.960Z,100953.34
2023-07-05T02:07:10.140Z,100954.00
2023-07-05T02:09:40.859Z,100955.13
2023-07-05T02:12:10.498Z,100958.25
2023-07-05T02:14:39.070Z,100948.53
2023-07-05T02:17:05.964Z,100941.38
2023-07-05T02:19:32.947Z,100928.19
2023-07-05T02:22:00.133Z,100924.56
2023-07-05T02:24:27.142Z,100905.53
2023-07-05T02:26:56.977Z,100919.31
2023-07-05T02:29:24.338Z,100920.47
2023-07-05T02:31:51.233Z,100924.59
2023-07-05T02:34:18.945Z,100910.34
2023-07-05T02:36:45.851Z,100909.56
2023-07-05T02:39:13.177Z,100882.00
2023-07-05T02:41:40.989Z,100883.25
2023-07-05T02:44:08.019Z,100864.13
2023-07-05T02:46:34.989Z,100853.91
2023-07-05T02:49:01.953Z,100857.06
2023-07-05T02:51:28.979Z,100848.44
2023-07-05T02:53:56.684Z,100829.13
2023-07-05T02:56:23.545Z,100814.75
2023-07-05T02:58:50.731Z,100802.38
2023-07-05T03:01:18.003Z,100801.75
2023-07-05T03:03:45.227Z,100769.06
2023-07-05T03:06:12.090Z,100787.88
2023-07-05T03:08:38.996Z,100783.72
2023-07-05T03:11:05.938Z,100776.97
2023-07-05T03:13:34.886Z,100775.34
2023-07-05T03:16:02.908Z,100770.81
2023-07-05T03:18:30.523Z,100762.69
2023-07-05T03:20:57.561Z,100754.25
2023-07-05T03:23:24.904Z,100744.47
2023-07-05T03:25:59.845Z,100748.53
2023-07-05T03:28:30.395Z,100755.84
2023-07-05T03:31:05.249Z,100754.31
2023-07-05T03:33:33.697Z,100769.47
2023-07-05T03:36:02.874Z,100758.06
2023-07-05T03:38:30.707Z,100749.31
2023-07-05T03:41:05.728Z,100756.31
2023-07-05T03:43:36.892Z,100758.03
2023-07-05T03:46:06.557Z,100750.00
2023-07-05T03:48:39.200Z,100759.16
2023-07-05T03:51:07.935Z,100769.38
2023-07-05T03:53:35.152Z,100770.81
2023-07-05T03:56:04.255Z,100777.69
2023-07-05T03:58:31.978Z,100729.53
2023-07-05T04:01:19.262Z,100757.38
2023-07-05T04:03:48.907Z,100753.28
2023-07-05T04:06:17.462Z,100764.66
2023-07-05T04:08:45.024Z,100757.78
2023-07-05T04:11:12.203Z,100751.97
2023-07-05T04:13:40.009Z,100731.25
2023-07-05T04:16:12.813Z,100726.59
2023-07-05T04:18:41.091Z,100721.16
2023-07-05T04:21:08.767Z,100723.94
2023-07-05T04:23:36.257Z,100705.66
2023-07-05T04:26:07.579Z,100715.06
2023-07-05T04:28:36.250Z,100694.28
2023-07-05T04:31:04.238Z,100668.03
2023-07-05T04:33:31.115Z,100678.31
2023-07-05T04:36:01.043Z,100684.38
2023-07-05T04:38:28.847Z,100670.75
2023-07-05T04:40:58.373Z,100667.25
2023-07-05T04:43:26.829Z,100650.59
2023-07-05T04:45:58.674Z,100643.84
2023-07-05T04:48:30.058Z,100645.00
2023-07-05T04:50:59.212Z,100635.91
2023-07-05T04:53:28.877Z,100605.81
2023-07-05T04:55:58.653Z,100635.25
2023-07-05T04:58:26.773Z,100627.78
2023-07-05T05:00:54.493Z,100626.75
2023-07-05T05:03:23.954Z,100617.06
2023-07-05T05:05:55.026Z,100612.16
2023-07-05T05:08:23.694Z,100607.59
2023-07-05T05:10:56.261Z,100607.75
2023-07-05T05:13:24.177Z,100608.00
2023-07-05T05:15:52.415Z,100597.16
2023-07-05T05:18:19.886Z,100587.94
2023-07-05T05:20:47.538Z,100583.38
2023-07-05T05:23:14.562Z,100589.34
2023-07-05T05:25:45.992Z,100584.13
2023-07-05T05:28:14.140Z,100573.50
2023-07-05T05:30:45.513Z,100568.59
2023-07-05T05:33:14.952Z,100553.34
2023-07-05T05:35:50.994Z,100560.91
2023-07-05T05:38:19.865Z,100549.59
2023-07-05T05:40:50.018Z,100542.97
2023-07-05T05:43:17.772Z,100533.97
2023-07-05T05:45:44.736Z,100543.66
2023-07-05T05:48:11.965Z,100528.25
2023-07-05T05:50:38.880Z,100538.88
2023-07-05T05:53:06.020Z,100527.66
2023-07-05T05:55:33.114Z,100516.16
2023-07-05T05:58:00.102Z,100512.16
2023-07-05T06:00:27.105Z,100518.34
2023-07-05T06:02:54.810Z,100500.47
2023-07-05T06:05:21.849Z,100506.09
2023-07-05T06:07:48.817Z,100515.06
2023-07-05T06:10:15.900Z,100511.69
2023-07-05T06:12:44.173Z,100512.63
2023-07-05T06:15:13.972Z,100523.13
2023-07-05T06:17:41.449Z,100528.84
2023-07-05T06:20:12.315Z,100523.75
2023-07-05T06:22:40.147Z,100514.53
2023-07-05T06:25:08.274Z,100499.09
2023-07-05T06:27:35.673Z,100506.94
2023-07-05T06:30:03.181Z,100512.97
2023-07-05T06:32:30.491Z,100514.50
2023-07-05T06:34:57.976Z,100510.88
2023-07-05T06:37:25.145Z,100509.34
2023-07-05T06:39:52.159Z,100502.13
2023-07-05T06:42:19.194Z,100497.59
2023-07-05T06:44:46.024Z,100492.56
2023-07-05T06:47:13.398Z,100492.34
2023-07-05T06:49:44.041Z,100495.47
2023-07-05T06:52:11.212Z,100481.59
2023-07-05T06:54:38.254Z,100495.38
2023-07-05T06:57:06.024Z,100486.41
2023-07-05T06:59:34.185Z,100479.28
2023-07-05T07:02:01.224Z,100488.84
2023-07-05T07:04:28.822Z,100484.78
2023-07-05T07:06:55.824Z,100480.00
2023-07-05T07:09:22.705Z,100471.91
2023-07-05T07:11:49.432Z,100484.41
2023-07-05T07:14:16.263Z,100478.91
2023-07-05T07:16:43.461Z,100466.91
2023-07-05T07:19:10.502Z,100470.13
2023-07-05T07:21:38.641Z,100460.03
2023-07-05T07:24:06.356Z,100446.91
2023-07-05T07:26:33.290Z,100458.69
2023-07-05T07:29:00.174Z,100472.81
2023-07-05T07:31:32.492Z,100469.06
2023-07-05T07:34:06.884Z,100457.88
2023-07-05T07:36:35.554Z,100455.25
2023-07-05T07:39:02.869Z,100474.00
2023-07-05T07:41:35.200Z,100471.91
2023-07-05T07:44:05.643Z,100463.69
2023-07-05T07:46:34.126Z,100442.56
2023-07-05T07:49:02.994Z,100465.00
2023-07-05T07:51:39.140Z,100471.28
2023-07-05T07:54:17.658Z,100472.16
2023-07-05T07:56:46.525Z,100461.53
2023-07-05T07:59:14.649Z,100461.50
2023-07-05T08:01:43.081Z,100452.53
2023-07-05T08:04:12.584Z,100460.69
2023-07-05T08:06:45.850Z,100460.34
2023-07-05T08:09:22.545Z,100459.00
2023-07-05T08:11:49.805Z,100463.06
2023-07-05T08:14:19.486Z,100457.31
2023-07-05T08:16:47.668Z,100465.25
2023-07-05T08:19:16.408Z,100461.19
2023-07-05T08:21:45.358Z,100447.97
2023-07-05T08:24:25.857Z,100439.47
2023-07-05T08:26:53.331Z,100444.72
2023-07-05T08:29:20.522Z,100451.16
2023-07-05T08:31:49.646Z,100454.38
2023-07-05T08:34:17.002Z,100428.63
2023-07-05T08:36:47.484Z,100436.78
2023-07-05T08:39:15.609Z,100426.72
2023-07-05T08:41:45.676Z,100421.75
2023-07-05T08:44:40.842Z,100420.19
2023-07-05T08:47:23.346Z,100406.97
2023-07-05T08:50:08.507Z,100427.44
2023-07-05T08:52:44.896Z,100421.06
2023-07-05T08:55:22.541Z,100414.41
2023-07-05T08:57:55.662Z,100407.41
2023-07-05T09:00:29.831Z,100403.63
2023-07-05T09:02:57.320Z,100411.81
2023-07-05T09:05:40.870Z,100424.59
2023-07-05T09:08:30.907Z,100428.16
2023-07-05T09:11:13.274Z,100435.31
2023-07-05T09:13:43.881Z,100449.00
2023-07-05T09:16:16.836Z,100463.91
2023-07-05T09:19:06.542Z,100472.66
2023-07-05T09:21:48.318Z,100479.75
2023-07-05T09:24:21.643Z,100494.69
2023-07-05T09:27:12.361Z,100454.44
2023-07-05T09:30:10.844Z,100471.94
2023-07-05T09:32:44.288Z,100473.13
2023-07-05T09:35:19.824Z,100466.50
2023-07-05T09:38:03.041Z,100482.91
2023-07-05T09:40:39.682Z,100468.31
2023-07-05T09:43:13.649Z,100468.41
2023-07-05T09:45:40.968Z,100454.50
2023-07-05T09:48:12.769Z,100464.00
2023-07-05T09:50:46.809Z,100468.41
2023-07-05T09:53:39.658Z,100469.72
2023-07-05T09:56:11.219Z,100470.50
2023-07-05T09:58:40.122Z,100472.63
2023-07-05T10:01:16.892Z,100462.09
2023-07-05T10:03:56.657Z,100453.63
2023-07-05T10:06:28.679Z,100449.22
2023-07-05T10:09:00.685Z,100454.75
2023-07-05T10:11:35.031Z,100458.88
2023-07-05T10:14:14.118Z,100469.03
2023-07-05T10:16:47.280Z,100466.44
2023-07-05T10:19:21.174Z,100469.72
2023-07-05T10:21:49.917Z,100472.41
2023-07-05T10:24:21.808Z,100451.31
2023-07-05T10:27:04.344Z,100440.06
2023-07-05T10:29:32.628Z,100437.69
2023-07-05T10:32:01.254Z,100475.81
2023-07-05T10:34:28.991Z,100472.47
2023-07-05T10:36:56.378Z,100469.22
2023-07-05T10:39:27.689Z,100462.09
2023-07-05T10:42:00.464Z,100468.50
2023-07-05T10:44:36.109Z,100457.91
2023-07-05T10:47:06.577Z,100465.94
2023-07-05T10:49:35.853Z,100451.41
2023-07-05T10:52:11.084Z,100441.22
2023-07-05T10:54:50.579Z,100479.59
2023-07-05T10:57:24.988Z,100483.81
2023-07-05T10:59:59.674Z,100493.63
2023-07-05T11:02:51.387Z,100502.66
2023-07-05T11:05:28.996Z,100504.81
2023-07-05T11:08:01.267Z,100494.00
2023-07-05T11:10:30.718Z,100476.94
2023-07-05T11:12:58.265Z,100455.69
2023-07-05T11:15:25.782Z,100467.34
2023-07-05T11:17:53.007Z,100422.97
2023-07-05T11:20:41.045Z,100470.66
2023-07-05T11:23:13.011Z,100478.34
2023-07-05T11:26:02.057Z,100478.50
2023-07-05T11:28:40.694Z,100462.63
2023-07-05T11:31:09.496Z,100501.13
2023-07-05T11:33:36.804Z,100489.16
2023-07-05T11:36:30.437Z,100512.47
2023-07-05T11:39:01.446Z,100479.19
2023-07-05T11:41:31.357Z,100538.38
2023-07-05T11:44:23.665Z,100527.88
2023-07-05T11:46:50.894Z,100519.50
2023-07-05T11:49:30.462Z,100526.19
2023-07-05T11:52:21.344Z,100509.91
2023-07-05T11:55:10.154Z,100526.91
2023-07-05T11:57:43.141Z,100517.50
2023-07-05T12:00:20.206Z,100527.66
2023-07-05T12:02:47.889Z,100523.56
2023-07-05T12:05:21.260Z,100533.50
2023-07-05T12:07:56.725Z,100539.44
2023-07-05T12:10:28.376Z,100523.22
2023-07-05T12:12:55.307Z,100538.06
2023-07-05T12:15:22.592Z,100521.38
2023-07-05T12:17:49.716Z,100526.03
2023-07-05T12:20:41.040Z,100523.09
2023-07-05T12:23:15.179Z,100534.88
2023-07-05T12:25:47.123Z,100545.34
2023-07-05T12:28:25.636Z,100516.47
2023-07-05T12:31:04.731Z,100532.72
2023-07-05T12:33:38.236Z,100512.44
2023-07-05T12:36:05.264Z,100524.56
2023-07-05T12:38:35.106Z,100525.31
2023-07-05T12:41:03.414Z,100505.63
2023-07-05T12:43:32.495Z,100493.56
2023-07-05T12:46:14.236Z,100499.34
2023-07-05T12:48:42.495Z,100499.69
2023-07-05T12:51:21.620Z,100503.03
2023-07-05T12:53:52.596Z,100513.41
2023-07-05T12:56:23.894Z,100509.56
2023-07-05T12:58:59.164Z,100489.47
2023-07-05T13:01:32.773Z,100486.25
2023-07-05T13:04:14.226Z,100500.47
2023-07-05T13:06:42.094Z,100521.50
2023-07-05T13:09:09.299Z,100501.22
2023-07-05T13:11:37.674Z,100495.75
2023-07-05T13:14:11.434Z,100499.00
2023-07-05T13:16:52.419Z,100522.84
2023-07-05T13:19:19.464Z,100492.69
2023-07-05T13:21:49.140Z,100508.81
2023-07-05T13:24:28.218Z,100522.84
2023-07-05T13:26:58.425Z,100521.38
2023-07-05T13:29:34.494Z,100526.16
2023-07-05T13:32:01.651Z,100527.13
2023-07-05T13:34:28.908Z,100518.19
2023-07-05T13:37:06.664Z,100514.22
2023-07-05T13:39:34.237Z,100526.16
2023-07-05T13:42:03.581Z,100537.06
2023-07-05T13:44:31.342Z,100504.63
2023-07-05T13:46:59.496Z,100543.16
2023-07-05T13:49:28.270Z,100530.91
2023-07-05T13:52:00.979Z,100550.53
2023-07-05T13:54:28.447Z,100550.28
2023-07-05T13:56:57.900Z,100511.25
2023-07-05T13:59:25.393Z,100544.56
2023-07-05T14:01:52.475Z,100540.50
2023-07-05T14:04:19.891Z,100567.19
2023-07-05T14:06:47.092Z,100562.63
2023-07-05T14:09:14.547Z,100564.84
2023-07-05T14:11:43.131Z,100593.03
2023-07-05T14:14:13.643Z,100577.13
2023-07-05T14:16:40.899Z,100589.22
2023-07-05T14:19:08.254Z,100603.53
2023-07-05T14:21:39.340Z,100597.50
2023-07-05T14:24:11.229Z,100601.63
2023-07-05T14:26:38.375Z,100610.28
2023-07-05T14:29:05.865Z,100595.38
2023-07-05T14:31:33.415Z,100594.44
2023-07-05T14:34:01.068Z,100591.38
2023-07-05T14:36:28.653Z,100585.09
2023-07-05T14:38:55.776Z,100601.69
2023-07-05T14:41:25.904Z,100614.03
2023-07-05T14:43:54.072Z,100568.06
2023-07-05T14:46:21.552Z,100619.59
2023-07-05T14:48:49.853Z,100605.75
2023-07-05T14:51:26.019Z,100622.91
2023-07-05T14:53:53.959Z,100609.28
2023-07-05T14:56:20.853Z,100623.88
2023-07-05T14:58:47.808Z,100627.44
2023-07-05T15:01:18.431Z,100615.41
2023-07-05T15:03:50.543Z,100617.94
2023-07-05T15:06:20.606Z,100618.97
2023-07-05T15:08:48.156Z,100627.06
2023-07-05T15:11:15.313Z,100632.91
2023-07-05T15:13:45.565Z,100624.53
2023-07-05T15:16:18.158Z,100603.31
2023-07-05T15:18:45.142Z,100631.44
2023-07-05T15:21:20.675Z,100616.53
2023-07-05T15:23:53.116Z,100614.16
2023-07-05T15:26:21.613Z,100635.72
2023-07-05T15:28:49.111Z,100596.44
2023-07-05T15:31:17.361Z,100605.59
2023-07-05T15:33:44.438Z,100606.28
2023-07-05T15:36:19.634Z,100620.16
2023-07-05T15:38:47.526Z,100636.16
2023-07-05T15:41:14.749Z,100595.00
2023-07-05T15:43:41.862Z,100625.66
2023-07-05T15:46:11.307Z,100632.03
2023-07-05T15:48:40.313Z,100623.66
2023-07-05T15:51:09.644Z,100615.59
2023-07-05T15:53:36.574Z,100621.22
2023-07-05T15:56:04.327Z,100660.84
2023-07-05T15:58:31.860Z,100702.81
2023-07-05T16:01:02.728Z,100640.53
2023-07-05T16:03:30.703Z,100705.97
2023-07-05T16:05:57.658Z,100686.91
2023-07-05T16:08:25.911Z,100705.38
2023-07-05T16:10:55.493Z,100698.94
2023-07-05T16:13:22.838Z,100706.66
2023-07-05T16:16:00.959Z,100695.06
2023-07-05T16:18:28.107Z,100676.13
2023-07-05T16:21:00.161Z,100721.47
2023-07-05T16:23:28.368Z,100724.97
2023-07-05T16:25:57.845Z,100732.31
2023-07-05T16:28:24.935Z,100734.91
2023-07-05T16:30:52.298Z,100733.84
2023-07-05T16:33:19.867Z,100737.88
2023-07-05T16:35:56.108Z,100739.75
2023-07-05T16:38:24.447Z,100759.28
2023-07-05T16:40:55.987Z,100741.56
2023-07-05T16:43:26.118Z,100767.25
2023-07-05T16:45:56.088Z,100735.31
2023-07-05T16:48:22.948Z,100769.03
2023-07-05T16:50:51.669Z,100769.50
2023-07-05T16:53:20.192Z,100783.34
2023-07-05T16:55:59.022Z,100777.72
2023-07-05T16:58:27.211Z,100791.72
2023-07-05T17:01:14.557Z,100784.16
2023-07-05T17:03:42.341Z,100794.47
2023-07-05T17:06:11.450Z,100803.00
2023-07-05T17:08:40.083Z,100784.50
2023-07-05T17:11:09.584Z,100797.56
2023-07-05T17:13:37.474Z,100799.38
2023-07-05T17:16:05.277Z,100796.34
2023-07-05T17:18:34.194Z,100809.41
2023-07-05T17:21:05.440Z,100816.78
2023-07-05T17:23:32.935Z,100770.72
2023-07-05T17:26:05.616Z,100813.28
2023-07-05T17:28:32.594Z,100817.69
2023-07-05T17:31:07.698Z,100824.81
2023-07-05T17:33:36.021Z,100825.09
2023-07-05T17:36:05.013Z,100833.63
2023-07-05T17:38:33.115Z,100839.56
2023-07-05T17:41:00.116Z,100840.38
2023-07-05T17:43:27.667Z,100833.25
2023-07-05T17:46:17.013Z,100843.78
2023-07-05T17:48:43.930Z,100849.88
2023-07-05T17:51:11.043Z,100849.13
2023-07-05T17:53:41.036Z,100861.44
2023-07-05T17:56:09.958Z,100879.75
2023-07-05T17:58:37.057Z,100883.03
2023-07-05T18:01:12.121Z,100895.06
2023-07-05T18:03:40.185Z,100901.06
2023-07-05T18:06:07.922Z,100908.91
2023-07-05T18:08:34.938Z,100902.47
2023-07-05T18:11:05.250Z,100903.63
2023-07-05T18:13:34.984Z,100914.59
2023-07-05T18:16:04.211Z,100919.06
2023-07-05T18:18:32.869Z,100911.44
2023-07-05T18:21:01.391Z,100918.44
2023-07-05T18:23:29.990Z,100905.69
2023-07-05T18:25:59.191Z,100924.03
2023-07-05T18:28:27.288Z,100930.28
2023-07-05T18:31:02.715Z,100926.88
2023-07-05T18:33:32.011Z,100930.50
2023-07-05T18:35:59.698Z,100948.75
2023-07-05T18:38:29.173Z,100955.41
2023-07-05T18:41:15.658Z,100958.94
2023-07-05T18:43:42.730Z,100970.41
2023-07-05T18:46:10.772Z,100962.78
2023-07-05T18:48:38.428Z,100972.03
2023-07-05T18:51:05.999Z,100974.94
2023-07-05T18:53:33.543Z,100986.53
2023-07-05T18:56:06.042Z,100987.25
2023-07-05T18:58:36.019Z,100992.03
2023-07-05T19:01:13.786Z,100984.88
2023-07-05T19:03:42.805Z,100994.72
2023-07-05T19:06:17.623Z,100994.47
2023-07-05T19:08:45.202Z,100989.44
2023-07-05T19:11:16.045Z,101010.00
2023-07-05T19:13:44.348Z,101021.22
2023-07-05T19:16:13.620Z,101010.81
2023-07-05T19:18:40.842Z,101024.53
2023-07-05T19:21:08.608Z,101027.09
2023-07-05T19:23:37.680Z,101029.91
2023-07-05T19:26:08.440Z,101031.53
2023-07-05T19:28:42.596Z,101037.72
2023-07-05T19:31:15.933Z,101052.44
2023-07-05T19:33:45.400Z,101063.94
2023-07-05T19:36:12.558Z,101064.03
2023-07-05T19:38:39.358Z,101059.94
2023-07-05T19:41:06.849Z,101058.63
2023-07-05T19:43:34.277Z,101055.31
2023-07-05T19:46:05.767Z,101068.91
2023-07-05T19:48:33.748Z,101075.84
2023-07-05T19:51:06.058Z,101073.81
2023-07-05T19:53:33.047Z,101065.41
2023-07-05T19:55:59.956Z,101071.34
2023-07-05T19:58:26.998Z,101080.44
2023-07-05T20:00:55.048Z,101085.88
2023-07-05T20:03:22.216Z,101088.97
2023-07-05T20:05:50.116Z,101092.44
2023-07-05T20:11:08.410Z,101104.13
2023-07-05T20:13:35.808Z,101099.81
2023-07-05T20:16:03.089Z,101098.00
2023-07-05T20:18:30.144Z,101103.38
2023-07-05T20:21:08.370Z,101110.69
2023-07-05T20:23:38.362Z,101091.63
2023-07-05T20:26:05.573Z,101115.38
2023-07-05T20:28:32.470Z,101120.72
2023-07-05T20:30:59.691Z,101113.88
2023-07-05T20:33:27.942Z,101095.97
2023-07-05T20:36:03.188Z,101127.41
2023-07-05T20:38:32.214Z,101139.91
2023-07-05T20:40:59.636Z,101133.50
2023-07-05T20:43:27.063Z,101113.63
2023-07-05T20:46:05.353Z,101140.94
2023-07-05T20:48:32.419Z,101144.41
2023-07-05T20:51:10.705Z,101098.53
2023-07-05T20:53:39.847Z,101150.50
2023-07-05T20:56:07.130Z,101152.28
2023-07-05T20:58:37.314Z,101156.91
2023-07-05T21:01:06.687Z,101164.19
2023-07-05T21:03:34.420Z,101165.19
2023-07-05T21:06:02.516Z,101167.63
2023-07-05T21:08:34.567Z,101169.75
2023-07-05T21:11:05.249Z,101100.06
2023-07-05T21:13:32.882Z,101173.28
2023-07-05T21:16:04.965Z,101173.00
2023-07-05T21:18:32.811Z,101155.88
2023-07-05T21:21:01.754Z,101184.66
2023-07-05T21:23:30.191Z,101188.97
2023-07-05T21:26:02.334Z,101186.00
2023-07-05T21:28:29.606Z,101186.00
2023-07-05T21:30:59.488Z,101187.50
2023-07-05T21:33:28.056Z,101190.78
2023-07-05T21:35:58.690Z,101205.47
2023-07-05T21:38:28.120Z,101195.25
2023-07-05T21:41:00.774Z,101211.75
2023-07-05T21:43:30.622Z,101199.66
2023-07-05T21:45:58.041Z,101200.69
2023-07-05T21:48:30.343Z,101209.94
2023-07-05T21:50:58.875Z,101213.78
2023-07-05T21:53:25.975Z,101214.75
2023-07-05T21:56:03.305Z,101227.09
2023-07-05T21:58:32.186Z,101205.41
2023-07-05T22:01:03.299Z,101231.91
2023-07-05T22:03:31.177Z,101225.63
2023-07-05T22:05:59.993Z,101233.53
2023-07-05T22:08:29.524Z,101225.00
2023-07-05T22:10:56.861Z,101240.94
2023-07-05T22:13:24.122Z,101242.28
2023-07-05T22:15:52.399Z,101247.38
2023-07-05T22:18:19.691Z,101248.88
2023-07-05T22:20:50.059Z,101246.06
2023-07-05T22:23:17.343Z,101217.97
2023-07-05T22:25:45.274Z,101241.47
2023-07-05T22:28:12.337Z,101240.81
2023-07-05T22:30:39.467Z,101253.50
2023-07-05T22:33:06.658Z,101249.69
2023-07-05T22:35:38.539Z,101260.88
2023-07-05T22:38:07.281Z,101250.50
2023-07-05T22:40:34.866Z,101250.34
2023-07-05T22:43:02.097Z,101254.44
2023-07-05T22:45:34.872Z,101253.78
2023-07-05T22:48:02.370Z,101262.03
2023-07-05T22:50:29.980Z,101257.75
2023-07-05T22:52:58.996Z,101265.81
2023-07-05T22:55:25.766Z,101277.19
2023-07-05T22:57:55.915Z,101278.50
2023-07-05T23:00:25.969Z,101274.88
2023-07-05T23:02:56.719Z,101281.78
2023-07-05T23:05:27.831Z,101261.88
2023-07-05T23:07:54.889Z,101276.81
2023-07-05T23:10:22.162Z,101277.94
2023-07-05T23:12:49.003Z,101287.50
2023-07-05T23:15:16.203Z,101288.00
2023-07-05T23:17:43.689Z,101267.59
2023-07-05T23:20:13.304Z,101290.00
2023-07-05T23:22:43.253Z,101301.03
2023-07-05T23:25:11.222Z,101304.00
2023-07-05T23:27:41.703Z,101302.22
2023-07-05T23:30:11.045Z,101304.19
2023-07-05T23:32:39.758Z,101304.00
2023-07-05T23:35:07.296Z,101309.09
2023-07-05T23:37:34.280Z,101317.00
2023-07-05T23:40:01.145Z,101316.34
2023-07-05T23:42:30.500Z,101305.97
2023-07-05T23:44:58.024Z,101318.13
2023-07-05T23:47:24.887Z,101313.56
2023-07-05T23:49:53.086Z,101313.56
2023-07-05T23:52:22.836Z,101323.44
2023-07-05T23:54:49.788Z,101321.13
2023-07-05T23:57:18.998Z,101327.53
2023-07-05T23:59:45.858Z,101335.78
